Time;durP1;ratioP1;P1;durP2;ratioP2;P2;SDS_P1;SDS_P2;PMS_P1;PMS_P2;Temp;Humidity;BMP_temperature;BMP_pressure;BME280_temperature;BME280_humidity;BME280_pressure;Samples;Min_cycle;Max_cycle;Signal;HPM_P1;HPM_P2
2023/09/26 00:00:09;;;;;;;;;;;11.40;99.90;;;;;;5089928;28;19920;-76
2023/09/26 00:02:35;;;;;;;;;;;11.30;99.90;;;;;;5085645;28;19927;-76
2023/09/26 00:05:05;;;;;;;;;;;11.30;99.90;;;;;;5089948;28;20113;-75
2023/09/26 00:07:32;;;;;;;;;;;11.30;99.90;;;;;;5085391;28;19927;-76
2023/09/26 00:10:00;;;;;;;;;;;11.20;99.90;;;;;;5085248;28;20257;-77
2023/09/26 00:12:28;;;;;;;;;;;11.20;99.90;;;;;;5082144;28;19921;-77
2023/09/26 00:14:55;;;;;;;;;;;11.20;99.90;;;;;;5084669;28;19920;-77
2023/09/26 00:17:22;;;;;;;;;;;11.20;99.90;;;;;;5085347;28;19921;-77
2023/09/26 00:19:49;;;;;;;;;;;11.10;99.90;;;;;;5085054;28;19920;-77
2023/09/26 00:22:15;;;;;;;;;;;11.10;99.90;;;;;;5085103;28;20012;-77
2023/09/26 00:24:42;;;;;;;;;;;11.10;99.90;;;;;;5084517;28;19984;-76
2023/09/26 00:27:08;;;;;;;;;;;11.00;99.90;;;;;;5090140;28;19927;-76
2023/09/26 00:29:36;;;;;;;;;;;11.00;99.90;;;;;;5089024;28;19956;-77
2023/09/26 00:32:03;;;;;;;;;;;11.00;99.90;;;;;;5085053;28;19952;-76
2023/09/26 00:34:30;;;;;;;;;;;10.90;99.90;;;;;;5084588;28;19932;-76
2023/09/26 00:36:57;;;;;;;;;;;10.90;99.90;;;;;;5084618;28;19920;-77
2023/09/26 00:39:23;;;;;;;;;;;10.90;99.90;;;;;;5084602;28;19987;-76
2023/09/26 00:41:50;;;;;;;;;;;10.90;99.90;;;;;;5084888;28;19920;-77
2023/09/26 00:44:17;;;;;;;;;;;10.90;99.90;;;;;;5084886;28;19921;-76
2023/09/26 00:46:45;;;;;;;;;;;10.90;99.90;;;;;;5084604;28;19983;-76
2023/09/26 00:49:12;;;;;;;;;;;10.80;99.90;;;;;;5084975;28;19926;-76
2023/09/26 00:51:39;;;;;;;;;;;10.80;99.90;;;;;;5085129;28;19927;-77
2023/09/26 00:54:06;;;;;;;;;;;10.80;99.90;;;;;;5088072;28;19920;-77
2023/09/26 00:56:33;;;;;;;;;;;10.80;99.90;;;;;;5089331;28;19920;-76
2023/09/26 00:59:00;;;;;;;;;;;10.80;99.90;;;;;;5084284;28;20163;-76
2023/09/26 01:01:30;;;;;;;;;;;10.70;99.90;;;;;;5089552;28;19980;-76
2023/09/26 01:04:00;;;;;;;;;;;10.70;99.90;;;;;;5083905;28;20135;-77
2023/09/26 01:06:27;;;;;;;;;;;10.70;99.90;;;;;;5087133;28;19920;-76
2023/09/26 01:08:54;;;;;;;;;;;10.60;99.90;;;;;;5091060;28;19958;-76
2023/09/26 01:11:20;;;;;;;;;;;10.60;99.90;;;;;;5088807;28;20210;-77
2023/09/26 01:13:47;;;;;;;;;;;10.50;99.90;;;;;;5083288;28;19921;-76
2023/09/26 01:16:14;;;;;;;;;;;10.50;99.90;;;;;;5083763;28;20000;-77
2023/09/26 01:18:41;;;;;;;;;;;10.50;99.90;;;;;;5083832;28;19966;-77
2023/09/26 01:21:09;;;;;;;;;;;10.50;99.90;;;;;;5083889;28;20218;-76
2023/09/26 01:23:36;;;;;;;;;;;10.40;99.90;;;;;;5084057;28;20222;-76
2023/09/26 01:26:04;;;;;;;;;;;10.40;99.90;;;;;;5093493;28;19951;-76
2023/09/26 01:28:31;;;;;;;;;;;10.40;99.90;;;;;;5083089;28;19956;-76
2023/09/26 01:30:58;;;;;;;;;;;10.30;99.90;;;;;;5087168;28;19920;-76
2023/09/26 01:33:25;;;;;;;;;;;10.30;99.90;;;;;;5084005;28;19983;-76
2023/09/26 01:35:51;;;;;;;;;;;10.30;99.90;;;;;;5083199;28;20269;-75
2023/09/26 01:38:19;;;;;;;;;;;10.30;99.90;;;;;;5083910;28;19958;-76
2023/09/26 01:40:46;;;;;;;;;;;10.20;99.90;;;;;;5083878;28;19966;-77
2023/09/26 01:43:14;;;;;;;;;;;10.20;99.90;;;;;;5083338;28;19928;-77
2023/09/26 01:45:40;;;;;;;;;;;10.20;99.90;;;;;;5083037;28;19952;-76
2023/09/26 01:48:09;;;;;;;;;;;10.20;99.90;;;;;;5083614;28;19920;-77
2023/09/26 01:50:36;;;;;;;;;;;10.20;99.90;;;;;;5083785;28;19921;-76
2023/09/26 01:53:04;;;;;;;;;;;10.10;99.90;;;;;;5083610;28;19920;-76
2023/09/26 01:55:30;;;;;;;;;;;10.10;99.90;;;;;;5081891;28;19927;-77
2023/09/26 01:57:57;;;;;;;;;;;10.10;99.90;;;;;;5083921;28;19948;-77
2023/09/26 02:00:25;;;;;;;;;;;10.10;99.90;;;;;;5086730;28;19926;-77
2023/09/26 02:02:52;;;;;;;;;;;10.10;99.90;;;;;;5087397;28;20167;-76
2023/09/26 02:05:20;;;;;;;;;;;10.00;99.90;;;;;;5083922;28;19959;-77
2023/09/26 02:07:46;;;;;;;;;;;10.00;99.90;;;;;;5083473;28;19960;-77
2023/09/26 02:10:13;;;;;;;;;;;10.00;99.90;;;;;;5088234;28;19920;-77
2023/09/26 02:12:42;;;;;;;;;;;10.00;99.90;;;;;;5083291;28;19943;-76
2023/09/26 02:15:09;;;;;;;;;;;10.00;99.90;;;;;;5082011;28;19987;-77
2023/09/26 02:17:37;;;;;;;;;;;10.00;99.90;;;;;;5083671;28;19927;-77
2023/09/26 02:20:08;;;;;;;;;;;10.00;99.90;;;;;;5087036;28;19996;-77
2023/09/26 02:22:36;;;;;;;;;;;10.00;99.90;;;;;;5085862;28;19921;-77
2023/09/26 02:25:02;;;;;;;;;;;10.00;99.90;;;;;;5087195;28;19939;-77
2023/09/26 02:27:29;;;;;;;;;;;9.90;99.90;;;;;;5087699;28;19921;-77
2023/09/26 02:29:56;;;;;;;;;;;9.90;99.90;;;;;;5092655;28;19920;-76
2023/09/26 02:32:22;;;;;;;;;;;9.90;99.90;;;;;;5090437;28;19926;-75
2023/09/26 02:34:50;;;;;;;;;;;9.90;99.90;;;;;;5086617;28;19981;-76
2023/09/26 02:37:17;;;;;;;;;;;9.80;99.90;;;;;;5090237;28;19992;-76
2023/09/26 02:39:43;;;;;;;;;;;9.90;99.90;;;;;;5086815;28;19921;-76
2023/09/26 02:42:10;;;;;;;;;;;9.80;99.90;;;;;;5087019;28;19920;-76
2023/09/26 02:44:37;;;;;;;;;;;9.80;99.90;;;;;;5086451;28;19920;-75
2023/09/26 02:47:03;;;;;;;;;;;9.70;99.90;;;;;;5086653;28;19920;-75
2023/09/26 02:49:30;;;;;;;;;;;9.70;99.90;;;;;;5086886;28;19920;-76
2023/09/26 02:51:58;;;;;;;;;;;9.70;99.90;;;;;;5090198;28;20119;-76
2023/09/26 02:54:26;;;;;;;;;;;9.70;99.90;;;;;;5086382;28;19951;-77
2023/09/26 02:56:53;;;;;;;;;;;9.60;99.90;;;;;;5081653;28;20269;-76
2023/09/26 02:59:19;;;;;;;;;;;9.60;99.90;;;;;;5086537;28;19956;-76
2023/09/26 03:01:46;;;;;;;;;;;9.60;99.90;;;;;;5086444;28;20180;-76
2023/09/26 03:04:12;;;;;;;;;;;9.60;99.90;;;;;;5086586;28;19925;-76
2023/09/26 03:06:39;;;;;;;;;;;9.60;99.90;;;;;;5085905;28;19927;-76
2023/09/26 03:09:08;;;;;;;;;;;9.50;99.90;;;;;;5086710;28;19984;-76
2023/09/26 03:11:34;;;;;;;;;;;9.50;99.90;;;;;;5087480;28;20269;-76
2023/09/26 03:14:01;;;;;;;;;;;9.50;99.90;;;;;;5089786;28;19920;-75
2023/09/26 03:16:28;;;;;;;;;;;9.50;99.90;;;;;;5085035;28;19963;-76
2023/09/26 03:18:55;;;;;;;;;;;9.50;99.90;;;;;;5085922;28;19921;-77
2023/09/26 03:21:22;;;;;;;;;;;9.50;99.90;;;;;;5086343;28;20185;-76
2023/09/26 03:23:48;;;;;;;;;;;9.40;99.90;;;;;;5089499;28;19963;-76
2023/09/26 03:26:16;;;;;;;;;;;9.50;99.90;;;;;;5085502;28;19921;-77
2023/09/26 03:28:43;;;;;;;;;;;9.40;99.90;;;;;;5085268;28;19991;-76
2023/09/26 03:31:10;;;;;;;;;;;9.40;99.90;;;;;;5086139;28;19963;-76
2023/09/26 03:33:37;;;;;;;;;;;9.30;99.90;;;;;;5085077;28;19962;-76
2023/09/26 03:36:04;;;;;;;;;;;9.30;99.90;;;;;;5085545;28;19980;-76
2023/09/26 03:38:31;;;;;;;;;;;9.30;99.90;;;;;;5085945;28;19983;-76
2023/09/26 03:40:58;;;;;;;;;;;9.20;99.90;;;;;;5085918;28;19959;-75
2023/09/26 03:43:27;;;;;;;;;;;9.20;99.90;;;;;;5085945;28;19958;-76
2023/09/26 03:45:53;;;;;;;;;;;9.20;99.90;;;;;;5085189;28;19928;-76
2023/09/26 03:48:20;;;;;;;;;;;9.10;99.90;;;;;;5085354;28;19940;-76
2023/09/26 03:50:47;;;;;;;;;;;9.10;99.90;;;;;;5088612;28;19958;-76
2023/09/26 03:53:14;;;;;;;;;;;9.10;99.90;;;;;;5087408;28;19928;-76
2023/09/26 03:55:41;;;;;;;;;;;9.10;99.90;;;;;;5081351;28;19943;-76
2023/09/26 03:58:07;;;;;;;;;;;9.10;99.90;;;;;;5085173;28;19983;-76
2023/09/26 04:00:35;;;;;;;;;;;9.00;99.90;;;;;;5085108;28;19955;-77
2023/09/26 04:03:02;;;;;;;;;;;9.00;99.90;;;;;;5086972;28;19948;-76
2023/09/26 04:05:28;;;;;;;;;;;9.00;99.90;;;;;;5082511;28;19921;-76
2023/09/26 04:07:55;;;;;;;;;;;8.90;99.90;;;;;;5079526;28;19955;-75
2023/09/26 04:10:22;;;;;;;;;;;8.90;99.90;;;;;;5084490;28;19970;-76
2023/09/26 04:12:48;;;;;;;;;;;8.90;99.90;;;;;;5085105;28;19983;-77
2023/09/26 04:15:15;;;;;;;;;;;8.80;99.90;;;;;;5084495;28;19987;-76
2023/09/26 04:17:43;;;;;;;;;;;8.80;99.90;;;;;;5087512;28;19951;-77
2023/09/26 04:20:13;;;;;;;;;;;8.80;99.90;;;;;;5087342;28;19920;-75
2023/09/26 04:22:39;;;;;;;;;;;8.80;99.90;;;;;;5084822;28;19924;-75
2023/09/26 04:25:06;;;;;;;;;;;8.80;99.90;;;;;;5084252;28;20226;-75
2023/09/26 04:27:32;;;;;;;;;;;8.80;99.90;;;;;;5084824;28;19920;-75
2023/09/26 04:29:59;;;;;;;;;;;8.70;99.90;;;;;;5087209;28;19920;-75
2023/09/26 04:32:26;;;;;;;;;;;8.70;99.90;;;;;;5084527;28;19926;-74
2023/09/26 04:34:54;;;;;;;;;;;8.70;99.90;;;;;;5084154;28;20172;-76
2023/09/26 04:37:21;;;;;;;;;;;8.70;99.90;;;;;;5084589;28;21180;-75
2023/09/26 04:39:47;;;;;;;;;;;8.70;99.90;;;;;;5084442;28;19927;-76
2023/09/26 04:42:14;;;;;;;;;;;8.70;99.90;;;;;;5084278;28;19920;-74
2023/09/26 04:44:41;;;;;;;;;;;8.60;99.90;;;;;;5084263;28;20178;-75
2023/09/26 04:47:07;;;;;;;;;;;8.60;99.90;;;;;;5083292;28;19984;-79
2023/09/26 04:49:34;;;;;;;;;;;8.60;99.90;;;;;;5084979;28;19984;-76
2023/09/26 04:52:02;;;;;;;;;;;8.70;99.90;;;;;;5084219;28;19936;-75
2023/09/26 04:54:29;;;;;;;;;;;8.60;99.90;;;;;;5083547;28;19963;-76
2023/09/26 04:56:55;;;;;;;;;;;8.60;99.90;;;;;;5090301;28;19983;-76
2023/09/26 04:59:22;;;;;;;;;;;8.60;99.90;;;;;;5083621;28;19980;-74
2023/09/26 05:01:49;;;;;;;;;;;8.50;99.90;;;;;;5084452;28;20234;-76
2023/09/26 05:04:16;;;;;;;;;;;8.50;99.90;;;;;;5084345;28;19928;-76
2023/09/26 05:06:42;;;;;;;;;;;8.50;99.90;;;;;;5083977;28;19960;-75
2023/09/26 05:09:10;;;;;;;;;;;8.50;99.90;;;;;;5089099;28;19943;-75
2023/09/26 05:11:37;;;;;;;;;;;8.50;99.90;;;;;;5084175;28;19927;-75
2023/09/26 05:14:03;;;;;;;;;;;8.50;99.90;;;;;;5084401;28;19999;-75
2023/09/26 05:16:30;;;;;;;;;;;8.50;99.90;;;;;;5083372;28;19921;-76
2023/09/26 05:18:57;;;;;;;;;;;8.50;99.90;;;;;;5083109;28;19959;-76
2023/09/26 05:21:23;;;;;;;;;;;8.40;99.90;;;;;;5083806;28;19970;-75
2023/09/26 05:23:50;;;;;;;;;;;8.40;99.90;;;;;;5083997;28;20110;-76
2023/09/26 05:26:18;;;;;;;;;;;8.40;99.90;;;;;;5083530;28;19957;-75
2023/09/26 05:28:45;;;;;;;;;;;8.40;99.90;;;;;;5083582;28;19956;-76
2023/09/26 05:31:11;;;;;;;;;;;8.40;99.90;;;;;;5084043;28;19920;-76
2023/09/26 05:33:38;;;;;;;;;;;8.40;99.90;;;;;;5084479;28;19920;-75
2023/09/26 05:36:05;;;;;;;;;;;8.40;99.90;;;;;;5083822;28;19920;-77
2023/09/26 05:38:31;;;;;;;;;;;8.40;99.90;;;;;;5084227;28;19927;-78
2023/09/26 05:40:58;;;;;;;;;;;8.50;99.90;;;;;;5083758;28;19963;-77
2023/09/26 05:43:27;;;;;;;;;;;8.40;99.90;;;;;;5089000;28;20282;-76
2023/09/26 05:45:53;;;;;;;;;;;8.50;99.90;;;;;;5087581;28;19921;-77
2023/09/26 05:48:20;;;;;;;;;;;8.50;99.90;;;;;;5084354;28;20217;-76
2023/09/26 05:50:47;;;;;;;;;;;8.40;99.90;;;;;;5084733;28;19959;-77
2023/09/26 05:53:13;;;;;;;;;;;8.40;99.90;;;;;;5087785;28;19920;-77
2023/09/26 05:55:40;;;;;;;;;;;8.40;99.90;;;;;;5088250;28;20237;-76
2023/09/26 05:58:06;;;;;;;;;;;8.40;99.90;;;;;;5083176;28;19927;-75
2023/09/26 06:00:35;;;;;;;;;;;8.40;99.90;;;;;;5083509;28;19979;-75
2023/09/26 06:03:02;;;;;;;;;;;8.50;99.90;;;;;;5087107;28;19980;-75
2023/09/26 06:05:28;;;;;;;;;;;8.50;99.90;;;;;;5089730;28;19998;-77
2023/09/26 06:07:55;;;;;;;;;;;8.50;99.90;;;;;;5087156;28;19963;-78
2023/09/26 06:10:22;;;;;;;;;;;8.50;99.90;;;;;;5084479;28;19928;-77
2023/09/26 06:12:48;;;;;;;;;;;8.50;99.90;;;;;;5092333;28;19979;-75
2023/09/26 06:15:15;;;;;;;;;;;8.60;99.90;;;;;;5089943;28;19951;-75
2023/09/26 06:17:43;;;;;;;;;;;8.60;99.90;;;;;;5096294;28;20016;-78
2023/09/26 06:20:10;;;;;;;;;;;8.60;99.90;;;;;;5096269;28;19966;-77
2023/09/26 06:22:36;;;;;;;;;;;8.70;99.90;;;;;;5095520;28;19920;-77
2023/09/26 06:25:04;;;;;;;;;;;8.70;99.90;;;;;;5094333;28;20234;-77
2023/09/26 06:27:33;;;;;;;;;;;8.80;99.90;;;;;;5093853;28;20264;-77
2023/09/26 06:30:00;;;;;;;;;;;8.80;99.90;;;;;;5087513;28;19988;-77
2023/09/26 06:32:26;;;;;;;;;;;8.80;99.90;;;;;;5088956;28;19984;-76
2023/09/26 06:34:58;;;;;;;;;;;8.90;99.90;;;;;;5086086;28;19942;-77
2023/09/26 06:37:25;;;;;;;;;;;8.90;99.90;;;;;;5090513;28;19958;-77
2023/09/26 06:39:51;;;;;;;;;;;9.00;99.90;;;;;;5090980;28;19979;-78
2023/09/26 06:42:18;;;;;;;;;;;9.00;99.90;;;;;;5092375;28;19920;-77
2023/09/26 06:44:45;;;;;;;;;;;9.00;99.90;;;;;;5087816;28;19979;-76
2023/09/26 06:47:11;;;;;;;;;;;9.10;99.90;;;;;;5083620;28;20003;-77
2023/09/26 06:49:38;;;;;;;;;;;9.10;99.90;;;;;;5088436;28;19996;-78
2023/09/26 06:52:06;;;;;;;;;;;9.20;99.90;;;;;;5083827;28;19979;-76
2023/09/26 06:54:32;;;;;;;;;;;9.20;99.90;;;;;;5083260;28;20373;-76
2023/09/26 06:56:59;;;;;;;;;;;9.20;99.90;;;;;;5088040;28;19920;-78
2023/09/26 06:59:26;;;;;;;;;;;9.30;99.90;;;;;;5093290;28;20118;-73
2023/09/26 07:01:52;;;;;;;;;;;9.30;99.90;;;;;;5088124;28;19920;-76
2023/09/26 07:04:19;;;;;;;;;;;9.40;99.90;;;;;;5083647;28;19928;-77
2023/09/26 07:06:46;;;;;;;;;;;9.50;99.90;;;;;;5083142;28;19928;-77
2023/09/26 07:09:14;;;;;;;;;;;9.50;99.90;;;;;;5090082;28;20110;-76
2023/09/26 07:11:41;;;;;;;;;;;9.60;99.90;;;;;;5086616;28;19920;-78
2023/09/26 07:14:08;;;;;;;;;;;9.70;99.90;;;;;;5087030;28;19955;-77
2023/09/26 07:16:34;;;;;;;;;;;9.80;99.90;;;;;;5089873;28;19920;-76
2023/09/26 07:19:01;;;;;;;;;;;9.90;99.90;;;;;;5087118;28;19980;-77
2023/09/26 07:21:28;;;;;;;;;;;10.00;99.90;;;;;;5087178;28;19965;-77
2023/09/26 07:23:54;;;;;;;;;;;10.10;99.90;;;;;;5086737;28;19996;-78
2023/09/26 07:26:22;;;;;;;;;;;10.10;99.90;;;;;;5086415;28;19933;-77
2023/09/26 07:28:49;;;;;;;;;;;10.20;99.90;;;;;;5090431;28;19921;-76
2023/09/26 07:31:17;;;;;;;;;;;10.30;99.90;;;;;;5086818;28;19979;-76
2023/09/26 07:33:43;;;;;;;;;;;10.40;99.90;;;;;;5086794;28;19921;-77
2023/09/26 07:36:10;;;;;;;;;;;10.50;99.90;;;;;;5087455;28;20118;-77
2023/09/26 07:38:37;;;;;;;;;;;10.60;99.90;;;;;;5088374;28;19983;-77
2023/09/26 07:41:04;;;;;;;;;;;10.70;99.90;;;;;;5087182;28;20161;-77
2023/09/26 07:43:33;;;;;;;;;;;10.80;99.90;;;;;;5092862;28;20043;-77
2023/09/26 07:46:04;;;;;;;;;;;10.90;99.90;;;;;;5085488;28;19927;-75
2023/09/26 07:48:30;;;;;;;;;;;11.00;99.90;;;;;;5086038;28;19951;-79
2023/09/26 07:50:57;;;;;;;;;;;11.20;99.90;;;;;;5092029;28;19921;-77
2023/09/26 07:53:24;;;;;;;;;;;11.30;99.90;;;;;;5086720;28;19921;-77
2023/09/26 07:55:50;;;;;;;;;;;11.40;99.90;;;;;;5091252;28;19970;-78
2023/09/26 07:58:17;;;;;;;;;;;11.40;99.90;;;;;;5091188;28;19920;-78
2023/09/26 08:00:45;;;;;;;;;;;11.40;99.90;;;;;;5086314;28;19920;-76
2023/09/26 08:03:12;;;;;;;;;;;11.50;99.90;;;;;;5086679;28;19983;-77
2023/09/26 08:05:38;;;;;;;;;;;11.50;99.90;;;;;;5089400;28;20182;-77
2023/09/26 08:08:05;;;;;;;;;;;11.50;99.90;;;;;;5088026;28;20149;-78
2023/09/26 08:10:32;;;;;;;;;;;11.60;99.90;;;;;;5093902;28;20286;-77
2023/09/26 08:12:58;;;;;;;;;;;11.70;99.90;;;;;;5090089;28;20169;-77
2023/09/26 08:15:27;;;;;;;;;;;11.80;99.90;;;;;;5085934;28;19985;-78
2023/09/26 08:17:55;;;;;;;;;;;11.90;99.90;;;;;;5089934;28;19929;-77
2023/09/26 08:20:23;;;;;;;;;;;11.90;99.90;;;;;;5090414;28;19991;-77
2023/09/26 08:22:50;;;;;;;;;;;12.10;99.90;;;;;;5089445;28;19919;-77
2023/09/26 08:25:17;;;;;;;;;;;12.10;99.90;;;;;;5087039;28;20004;-78
2023/09/26 08:27:43;;;;;;;;;;;12.20;99.90;;;;;;5091132;28;19955;-77
2023/09/26 08:30:11;;;;;;;;;;;12.30;99.90;;;;;;5086153;28;19962;-77
2023/09/26 08:32:38;;;;;;;;;;;12.30;99.90;;;;;;5089807;28;19920;-77
2023/09/26 08:35:07;;;;;;;;;;;12.40;99.90;;;;;;5080398;28;19921;-78
2023/09/26 08:37:34;;;;;;;;;;;12.60;99.90;;;;;;5089984;28;19987;-78
2023/09/26 08:40:00;;;;;;;;;;;12.70;99.90;;;;;;5085615;28;19927;-77
2023/09/26 08:42:27;;;;;;;;;;;12.90;99.90;;;;;;5085583;28;19988;-77
2023/09/26 08:44:54;;;;;;;;;;;13.00;99.90;;;;;;5096496;28;19924;-77
2023/09/26 08:47:23;;;;;;;;;;;13.20;99.90;;;;;;5087937;28;19955;-78
2023/09/26 08:49:50;;;;;;;;;;;13.30;99.90;;;;;;5097165;28;19947;-77
2023/09/26 08:52:18;;;;;;;;;;;13.50;99.90;;;;;;5088343;28;19947;-77
2023/09/26 08:54:45;;;;;;;;;;;13.60;99.90;;;;;;5089866;28;19951;-78
2023/09/26 08:57:12;;;;;;;;;;;13.90;99.90;;;;;;5089315;28;19954;-78
2023/09/26 08:59:39;;;;;;;;;;;14.00;99.90;;;;;;5093447;28;20175;-76
2023/09/26 09:02:06;;;;;;;;;;;14.10;99.90;;;;;;5094464;28;19920;-76
2023/09/26 09:04:33;;;;;;;;;;;14.30;99.90;;;;;;5092513;28;19948;-75
2023/09/26 09:07:04;;;;;;;;;;;14.30;99.90;;;;;;5097785;28;20109;-77
2023/09/26 09:09:32;;;;;;;;;;;14.40;99.90;;;;;;5091911;28;19948;-77
2023/09/26 09:11:59;;;;;;;;;;;14.60;99.90;;;;;;5088182;28;19974;-75
2023/09/26 09:14:33;;;;;;;;;;;14.80;99.90;;;;;;5080982;28;19974;-75
2023/09/26 09:17:00;;;;;;;;;;;15.00;99.90;;;;;;5083802;28;19924;-76
2023/09/26 09:19:43;;;;;;;;;;;15.10;99.90;;;;;;5084335;28;19956;-76
2023/09/26 09:22:14;;;;;;;;;;;15.20;99.90;;;;;;5092591;28;20234;-76
2023/09/26 09:24:42;;;;;;;;;;;15.50;99.90;;;;;;5088140;28;19952;-76
2023/09/26 09:27:09;;;;;;;;;;;15.70;99.90;;;;;;5080336;28;19951;-77
2023/09/26 09:29:36;;;;;;;;;;;15.90;99.90;;;;;;5079434;28;19920;-76
2023/09/26 09:32:02;;;;;;;;;;;16.10;99.90;;;;;;5088252;28;19927;-76
2023/09/26 09:34:29;;;;;;;;;;;16.30;99.90;;;;;;5087847;28;20270;-76
2023/09/26 09:36:56;;;;;;;;;;;16.50;99.90;;;;;;5085282;28;19977;-77
2023/09/26 09:39:23;;;;;;;;;;;16.60;99.90;;;;;;5088582;28;20206;-76
2023/09/26 09:41:56;;;;;;;;;;;16.80;99.90;;;;;;5096606;28;19965;-76
2023/09/26 09:44:24;;;;;;;;;;;16.90;99.90;;;;;;5084105;28;19927;-76
2023/09/26 09:46:54;;;;;;;;;;;17.10;99.90;;;;;;5083374;28;19943;-76
2023/09/26 09:49:23;;;;;;;;;;;17.40;99.90;;;;;;5089221;28;19920;-76
2023/09/26 09:51:50;;;;;;;;;;;17.40;99.90;;;;;;5096024;28;20403;-76
2023/09/26 09:54:20;;;;;;;;;;;17.50;99.90;;;;;;5094146;28;19924;-77
2023/09/26 09:56:47;;;;;;;;;;;17.60;99.90;;;;;;5095831;28;19932;-77
2023/09/26 09:59:16;;;;;;;;;;;17.80;99.90;;;;;;5095157;28;20356;-76
2023/09/26 10:01:44;;;;;;;;;;;17.90;99.90;;;;;;5083732;28;19955;-76
2023/09/26 10:04:11;;;;;;;;;;;18.00;99.90;;;;;;5085738;28;19921;-76
2023/09/26 10:06:38;;;;;;;;;;;18.20;99.90;;;;;;5083152;28;19988;-77
2023/09/26 10:09:06;;;;;;;;;;;18.30;99.90;;;;;;5083581;28;20063;-75
2023/09/26 10:11:34;;;;;;;;;;;18.50;99.90;;;;;;5089661;28;19920;-76
2023/09/26 10:14:00;;;;;;;;;;;18.60;99.90;;;;;;5097248;28;19947;-75
2023/09/26 10:16:29;;;;;;;;;;;18.70;99.90;;;;;;5087481;28;19921;-76
2023/09/26 10:18:59;;;;;;;;;;;18.80;99.90;;;;;;5088317;28;19920;-77
2023/09/26 10:21:26;;;;;;;;;;;18.90;99.90;;;;;;5083346;28;19989;-75
2023/09/26 10:24:12;;;;;;;;;;;19.00;99.90;;;;;;5080603;28;19992;-76
2023/09/26 10:26:39;;;;;;;;;;;19.00;99.90;;;;;;5092923;28;19927;-76
2023/09/26 10:29:06;;;;;;;;;;;19.10;99.90;;;;;;5096624;28;19954;-77
2023/09/26 10:31:34;;;;;;;;;;;19.20;99.90;;;;;;5088144;28;19988;-77
2023/09/26 10:34:02;;;;;;;;;;;19.30;99.90;;;;;;5083309;28;20202;-76
2023/09/26 10:36:29;;;;;;;;;;;19.50;99.90;;;;;;5082843;28;19965;-76
2023/09/26 10:38:59;;;;;;;;;;;19.60;99.90;;;;;;5083758;28;19935;-76
2023/09/26 10:41:26;;;;;;;;;;;19.80;99.90;;;;;;5083256;28;19999;-77
2023/09/26 10:43:53;;;;;;;;;;;19.90;99.90;;;;;;5095490;28;19975;-76
2023/09/26 10:46:19;;;;;;;;;;;20.00;99.90;;;;;;5090540;28;19983;-76
2023/09/26 10:48:48;;;;;;;;;;;20.10;99.90;;;;;;5091950;28;19959;-77
2023/09/26 10:51:15;;;;;;;;;;;20.20;99.90;;;;;;5081619;28;19942;-77
2023/09/26 10:53:42;;;;;;;;;;;20.30;99.90;;;;;;5106126;28;19971;-74
2023/09/26 10:56:09;;;;;;;;;;;20.40;99.90;;;;;;5089522;28;19925;-77
2023/09/26 10:58:35;;;;;;;;;;;20.40;99.90;;;;;;5087026;28;19991;-77
2023/09/26 11:01:02;;;;;;;;;;;20.40;99.90;;;;;;5086677;28;19928;-77
2023/09/26 11:03:29;;;;;;;;;;;20.50;99.90;;;;;;5083901;28;20236;-77
2023/09/26 11:05:57;;;;;;;;;;;20.70;99.90;;;;;;5091412;28;19986;-77
2023/09/26 11:08:25;;;;;;;;;;;20.80;99.90;;;;;;5086332;28;19979;-76
2023/09/26 11:10:52;;;;;;;;;;;20.90;99.90;;;;;;5081820;28;19985;-76
2023/09/26 11:13:19;;;;;;;;;;;21.10;99.90;;;;;;5086579;28;20398;-77
2023/09/26 11:15:46;;;;;;;;;;;21.20;99.90;;;;;;5086230;28;19935;-76
2023/09/26 11:18:13;;;;;;;;;;;21.30;99.90;;;;;;5080826;28;20167;-76
2023/09/26 11:20:40;;;;;;;;;;;21.40;99.90;;;;;;5086508;28;19959;-77
2023/09/26 11:23:08;;;;;;;;;;;21.60;99.90;;;;;;5083134;28;20003;-76
2023/09/26 11:25:34;;;;;;;;;;;21.60;99.90;;;;;;5078257;28;19920;-76
2023/09/26 11:28:02;;;;;;;;;;;21.80;99.90;;;;;;5086464;28;19987;-76
2023/09/26 11:30:29;;;;;;;;;;;21.80;99.90;;;;;;5083849;28;19928;-76
2023/09/26 11:32:56;;;;;;;;;;;22.00;99.90;;;;;;5083268;28;19926;-76
2023/09/26 11:35:23;;;;;;;;;;;22.10;99.90;;;;;;5079410;28;19955;-73
2023/09/26 11:37:50;;;;;;;;;;;22.30;99.90;;;;;;5088890;28;20285;-73
2023/09/26 11:40:22;;;;;;;;;;;22.30;99.90;;;;;;5085420;28;19991;-74
2023/09/26 11:42:51;;;;;;;;;;;22.40;99.90;;;;;;5084988;28;19920;-76
2023/09/26 11:45:21;;;;;;;;;;;22.50;99.90;;;;;;5084807;28;19921;-74
2023/09/26 11:47:47;;;;;;;;;;;22.60;99.90;;;;;;5082227;28;19991;-74
2023/09/26 11:50:14;;;;;;;;;;;22.70;99.90;;;;;;5085682;28;19987;-76
2023/09/26 11:52:41;;;;;;;;;;;22.80;99.90;;;;;;5082715;28;20121;-76
2023/09/26 11:55:08;;;;;;;;;;;22.90;99.90;;;;;;5083924;28;19980;-75
2023/09/26 11:57:36;;;;;;;;;;;23.00;99.90;;;;;;5085647;28;19979;-76
2023/09/26 12:00:07;;;;;;;;;;;23.10;99.90;;;;;;5085503;28;19958;-76
2023/09/26 12:02:34;;;;;;;;;;;23.00;99.90;;;;;;5085932;28;19921;-76
2023/09/26 12:05:00;;;;;;;;;;;22.90;99.90;;;;;;5103101;28;19962;-77
2023/09/26 12:07:27;;;;;;;;;;;22.90;99.90;;;;;;5094397;28;19943;-73
2023/09/26 12:09:54;;;;;;;;;;;22.90;99.90;;;;;;5087319;28;19988;-76
2023/09/26 12:12:20;;;;;;;;;;;23.00;99.90;;;;;;5085688;28;19920;-76
2023/09/26 12:14:48;;;;;;;;;;;23.00;99.90;;;;;;5084858;28;19920;-74
2023/09/26 12:17:15;;;;;;;;;;;23.20;99.90;;;;;;5085188;28;19983;-76
2023/09/26 12:19:41;;;;;;;;;;;23.30;99.90;;;;;;5084947;28;19984;-76
2023/09/26 12:22:08;;;;;;;;;;;23.60;99.90;;;;;;5084968;28;19927;-74
2023/09/26 12:24:35;;;;;;;;;;;23.70;99.90;;;;;;5082187;28;19983;-76
2023/09/26 12:27:02;;;;;;;;;;;23.80;99.90;;;;;;5084364;28;19987;-77
2023/09/26 12:29:30;;;;;;;;;;;23.90;99.90;;;;;;5084359;28;19928;-76
2023/09/26 12:32:00;;;;;;;;;;;24.00;99.90;;;;;;5084852;28;19928;-76
2023/09/26 12:34:27;;;;;;;;;;;24.10;99.90;;;;;;5083754;28;19936;-77
2023/09/26 12:36:54;;;;;;;;;;;24.20;99.90;;;;;;5084176;28;19956;-76
2023/09/26 12:39:20;;;;;;;;;;;24.30;99.90;;;;;;5084235;28;19952;-76
2023/09/26 12:41:47;;;;;;;;;;;24.50;99.90;;;;;;5084689;28;19932;-74
2023/09/26 12:44:13;;;;;;;;;;;24.60;99.90;;;;;;5086419;28;20300;-76
2023/09/26 12:46:40;;;;;;;;;;;24.70;99.90;;;;;;5084124;28;20167;-76
2023/09/26 12:49:09;;;;;;;;;;;24.80;99.90;;;;;;5084441;28;19951;-76
2023/09/26 12:51:35;;;;;;;;;;;25.00;99.90;;;;;;5084933;28;19961;-79
2023/09/26 12:54:02;;;;;;;;;;;25.10;99.90;;;;;;5085192;28;19962;-76
2023/09/26 12:56:29;;;;;;;;;;;25.20;99.90;;;;;;5085517;28;20169;-76
2023/09/26 12:58:56;;;;;;;;;;;25.20;99.90;;;;;;5093263;28;19954;-76
2023/09/26 13:01:22;;;;;;;;;;;25.40;99.90;;;;;;5084082;28;19992;-76
2023/09/26 13:03:49;;;;;;;;;;;25.40;99.90;;;;;;5087282;28;20477;-76
2023/09/26 13:06:17;;;;;;;;;;;25.50;99.90;;;;;;5085199;28;19959;-75
2023/09/26 13:08:44;;;;;;;;;;;25.60;99.90;;;;;;5084322;28;19931;-77
2023/09/26 13:11:11;;;;;;;;;;;25.70;99.90;;;;;;5084187;28;19926;-75
2023/09/26 13:13:37;;;;;;;;;;;25.60;99.90;;;;;;5083888;28;19987;-75
2023/09/26 13:16:04;;;;;;;;;;;25.60;99.90;;;;;;5083197;28;19983;-74
2023/09/26 13:18:31;;;;;;;;;;;25.70;99.90;;;;;;5083712;28;20156;-75
2023/09/26 13:20:57;;;;;;;;;;;25.90;99.90;;;;;;5084192;28;19959;-76
2023/09/26 13:23:25;;;;;;;;;;;26.20;99.90;;;;;;5083917;28;19987;-76
2023/09/26 13:25:52;;;;;;;;;;;26.30;99.90;;;;;;5083203;28;20118;-75
2023/09/26 13:28:19;;;;;;;;;;;26.40;99.90;;;;;;5083949;28;19927;-76
2023/09/26 13:30:45;;;;;;;;;;;26.50;99.90;;;;;;5083939;28;19956;-75
2023/09/26 13:33:14;;;;;;;;;;;26.50;99.90;;;;;;5083982;28;19921;-76
2023/09/26 13:35:42;;;;;;;;;;;26.50;99.90;;;;;;5086549;28;19920;-75
2023/09/26 13:38:08;;;;;;;;;;;26.50;99.90;;;;;;5083850;28;19959;-76
2023/09/26 13:40:36;;;;;;;;;;;26.40;99.90;;;;;;5083870;28;19952;-74
2023/09/26 13:43:03;;;;;;;;;;;26.50;99.90;;;;;;5083512;28;19922;-75
2023/09/26 13:45:30;;;;;;;;;;;26.70;99.90;;;;;;5080332;28;19955;-76
2023/09/26 13:47:56;;;;;;;;;;;26.80;99.90;;;;;;5083607;28;19920;-75
2023/09/26 13:50:23;;;;;;;;;;;26.80;99.90;;;;;;5083700;28;19956;-75
2023/09/26 13:52:49;;;;;;;;;;;26.90;99.90;;;;;;5083635;28;19926;-75
2023/09/26 13:55:16;;;;;;;;;;;26.90;99.90;;;;;;5082762;28;20114;-75
2023/09/26 13:57:44;;;;;;;;;;;26.80;99.90;;;;;;5083593;28;19984;-75
2023/09/26 14:00:12;;;;;;;;;;;26.80;99.90;;;;;;5083212;28;19956;-75
2023/09/26 14:02:38;;;;;;;;;;;26.70;99.90;;;;;;5083364;28;19925;-75
2023/09/26 14:05:05;;;;;;;;;;;26.80;99.90;;;;;;5082708;28;20257;-75
2023/09/26 14:07:32;;;;;;;;;;;26.90;99.90;;;;;;5083394;28;19987;-76
2023/09/26 14:09:59;;;;;;;;;;;27.00;99.90;;;;;;5083343;28;19920;-75
2023/09/26 14:12:25;;;;;;;;;;;26.90;99.90;;;;;;5083479;28;19920;-75
2023/09/26 14:14:53;;;;;;;;;;;27.00;99.90;;;;;;5077758;28;19956;-75
2023/09/26 14:17:20;;;;;;;;;;;27.10;99.90;;;;;;5083500;28;20250;-74
2023/09/26 14:19:47;;;;;;;;;;;27.10;99.90;;;;;;5087642;28;19929;-75